createdAt,value
2022-11-02T00:04:44.904Z,11.18
2022-11-02T00:09:46.511Z,11.23
2022-11-02T00:14:47.949Z,11.34
2022-11-02T00:19:49.550Z,11.41
2022-11-02T00:24:51.384Z,11.42
2022-11-02T00:29:53.783Z,11.39
2022-11-02T00:34:55.193Z,11.32
2022-11-02T00:39:56.618Z,11.34
2022-11-02T00:44:58.095Z,11.27
2022-11-02T00:49:59.576Z,11.26
2022-11-02T00:55:01.036Z,11.32
2022-11-02T01:00:02.729Z,11.28
2022-11-02T01:05:06.325Z,11.35
2022-11-02T01:10:09.467Z,11.31
2022-11-02T01:15:11.034Z,11.31
2022-11-02T01:20:14.376Z,11.33
2022-11-02T01:25:15.926Z,11.33
2022-11-02T01:30:17.765Z,11.32
2022-11-02T01:35:19.170Z,11.41
2022-11-02T01:40:20.756Z,11.52
2022-11-02T01:45:22.890Z,11.46
2022-11-02T01:50:27.358Z,11.53
2022-11-02T01:55:30.344Z,11.61
2022-11-02T02:00:31.845Z,11.51
2022-11-02T02:05:38.267Z,11.65
2022-11-02T02:10:39.839Z,11.66
2022-11-02T02:16:11.632Z,11.78
2022-11-02T02:21:21.112Z,11.78
2022-11-02T02:26:55.039Z,11.82
2022-11-02T02:32:14.832Z,11.72
2022-11-02T02:37:31.714Z,11.78
2022-11-02T02:43:08.049Z,11.86
2022-11-02T02:48:19.778Z,11.59
2022-11-02T02:53:28.337Z,11.48
2022-11-02T02:58:36.803Z,11.40
2022-11-02T03:03:41.691Z,11.45
2022-11-02T03:08:53.963Z,11.39
2022-11-02T03:14:29.435Z,11.37
2022-11-02T03:19:37.346Z,11.39
2022-11-02T03:25:08.035Z,11.43
2022-11-02T03:30:11.482Z,11.54
2022-11-02T03:35:20.756Z,11.40
2022-11-02T03:40:32.981Z,11.44
2022-11-02T03:45:42.280Z,11.40
2022-11-02T03:50:48.969Z,11.45
2022-11-02T03:56:00.286Z,11.48
2022-11-02T04:01:08.290Z,11.56
2022-11-02T04:06:09.846Z,11.56
2022-11-02T04:11:30.463Z,11.52
2022-11-02T04:16:31.903Z,11.54
2022-11-02T04:21:33.667Z,11.48
2022-11-02T04:26:35.091Z,11.16
2022-11-02T04:31:36.729Z,10.80
2022-11-02T04:36:38.151Z,10.67
2022-11-02T04:41:42.163Z,10.54
2022-11-02T04:46:44.459Z,10.39
2022-11-02T04:51:49.760Z,10.18
2022-11-02T04:56:51.508Z,10.08
2022-11-02T05:01:53.085Z,10.04
2022-11-02T05:06:58.842Z,9.94
2022-11-02T05:12:04.977Z,10.13
2022-11-02T05:17:06.392Z,10.25
2022-11-02T05:22:08.127Z,10.16
2022-11-02T05:27:10.526Z,10.25
2022-11-02T05:32:12.015Z,10.40
2022-11-02T05:37:13.462Z,10.57
2022-11-02T05:42:14.872Z,10.75
2022-11-02T05:47:16.287Z,10.72
2022-11-02T05:52:17.740Z,10.79
2022-11-02T05:57:19.170Z,10.87
2022-11-02T06:02:23.273Z,10.83
2022-11-02T06:07:26.884Z,10.83
2022-11-02T06:12:28.319Z,10.87
2022-11-02T06:17:36.927Z,10.85
2022-11-02T06:22:39.981Z,10.92
2022-11-02T06:27:45.992Z,10.84
2022-11-02T06:32:48.555Z,10.83
2022-11-02T06:37:50.178Z,10.78
2022-11-02T06:43:22.233Z,10.77
2022-11-02T06:48:19.929Z,10.83
2022-11-02T06:53:21.376Z,10.83
2022-11-02T06:58:24.071Z,10.92
2022-11-02T07:03:26.155Z,10.90
2022-11-02T07:08:28.179Z,10.91
2022-11-02T07:13:30.062Z,10.99
2022-11-02T07:18:31.465Z,10.98
2022-11-02T07:23:33.070Z,11.06
2022-11-02T07:28:36.757Z,11.10
2022-11-02T07:33:38.185Z,11.24
2022-11-02T07:38:39.665Z,11.37
2022-11-02T07:43:43.179Z,11.40
2022-11-02T07:48:46.743Z,11.57
2022-11-02T07:53:48.226Z,11.61
2022-11-02T07:58:49.632Z,11.61
2022-11-02T08:03:51.075Z,11.77
2022-11-02T08:08:52.967Z,11.98
2022-11-02T08:13:54.370Z,11.89
2022-11-02T08:18:58.782Z,11.96
2022-11-02T08:24:00.207Z,12.13
2022-11-02T08:29:02.354Z,12.22
2022-11-02T08:34:03.884Z,12.10
2022-11-02T08:39:05.430Z,11.90
2022-11-02T08:44:06.895Z,11.86
2022-11-02T08:49:08.352Z,11.67
2022-11-02T08:54:09.911Z,11.63
2022-11-02T08:59:11.535Z,11.53
2022-11-02T09:04:12.982Z,11.65
2022-11-02T09:09:14.416Z,11.84
2022-11-02T09:14:24.558Z,11.81
2022-11-02T09:19:26.061Z,11.76
2022-11-02T09:24:27.486Z,11.70
2022-11-02T09:29:28.889Z,11.81
2022-11-02T09:34:30.287Z,11.83
2022-11-02T09:39:31.711Z,12.00
2022-11-02T09:44:42.764Z,12.00
2022-11-02T09:49:44.683Z,12.15
2022-11-02T09:54:52.775Z,12.30
2022-11-02T09:59:54.547Z,12.40
2022-11-02T10:05:14.748Z,12.24
2022-11-02T10:10:31.986Z,12.64
2022-11-02T10:15:46.137Z,12.46
2022-11-02T10:20:54.323Z,11.96
2022-11-02T10:25:55.962Z,13.20
2022-11-02T10:30:57.835Z,15.17
2022-11-02T10:36:19.016Z,14.20
2022-11-02T10:41:31.831Z,13.78
2022-11-02T10:47:11.480Z,12.22
2022-11-02T10:52:15.405Z,11.39
2022-11-02T10:57:22.169Z,11.05
2022-11-02T11:02:23.668Z,10.79
2022-11-02T11:07:27.802Z,10.85
2022-11-02T11:12:40.901Z,10.76
2022-11-02T11:23:20.493Z,10.59
2022-11-02T11:28:42.987Z,10.49
2022-11-02T11:33:52.116Z,10.36
2022-11-02T11:38:56.839Z,10.11
2022-11-02T11:44:00.247Z,9.95
2022-11-02T11:49:01.774Z,9.93
2022-11-02T11:54:24.073Z,9.89
2022-11-02T11:59:48.315Z,9.72
2022-11-02T12:04:49.812Z,9.73
2022-11-02T12:10:06.052Z,9.67
2022-11-02T12:15:17.290Z,9.63
2022-11-02T12:20:39.533Z,9.46
2022-11-02T12:25:48.735Z,9.52
2022-11-02T12:31:22.263Z,9.63
2022-11-02T12:37:01.678Z,9.67
2022-11-02T12:42:20.179Z,9.71
2022-11-02T12:47:39.577Z,9.80
2022-11-02T12:53:04.924Z,9.77
2022-11-02T12:58:34.779Z,9.82
2022-11-02T13:03:50.237Z,9.82
2022-11-02T13:09:07.067Z,9.67
2022-11-02T13:14:15.741Z,9.64
2022-11-02T13:19:42.766Z,9.65
2022-11-02T13:24:47.794Z,9.57
2022-11-02T13:29:50.827Z,9.79
2022-11-02T13:34:54.937Z,9.84
2022-11-02T13:40:04.590Z,10.00
2022-11-02T13:45:05.959Z,10.05
2022-11-02T13:50:13.358Z,10.18
2022-11-02T13:55:41.361Z,10.14
2022-11-02T14:00:46.712Z,10.09
2022-11-02T14:05:52.909Z,9.99
2022-11-02T14:11:09.400Z,10.22
2022-11-02T14:16:10.897Z,10.10
2022-11-02T14:21:41.870Z,9.92
2022-11-02T14:26:54.875Z,9.87
2022-11-02T14:32:03.106Z,9.86
2022-11-02T14:37:42.315Z,10.01
2022-11-02T14:43:10.128Z,10.36
2022-11-02T14:48:16.221Z,10.07
2022-11-02T14:53:24.875Z,9.77
2022-11-02T14:58:51.787Z,9.70
2022-11-02T15:03:53.577Z,9.45
2022-11-02T15:09:06.515Z,9.57
2022-11-02T15:14:35.588Z,9.49
2022-11-02T15:19:50.334Z,9.45
2022-11-02T15:24:54.193Z,9.40
2022-11-02T15:29:56.876Z,9.41
2022-11-02T15:34:58.551Z,9.41
2022-11-02T15:40:04.259Z,9.29
2022-11-02T15:45:46.755Z,9.39
2022-11-02T15:51:11.850Z,9.27
2022-11-02T15:56:31.791Z,9.30
2022-11-02T16:01:34.123Z,9.32
2022-11-02T16:06:42.888Z,9.36
2022-11-02T16:11:44.350Z,9.37
2022-11-02T16:16:47.382Z,9.45
2022-11-02T16:21:49.911Z,9.64
2022-11-02T16:26:51.609Z,9.67
2022-11-02T16:31:53.143Z,9.61
2022-11-02T16:36:54.885Z,9.59
2022-11-02T16:41:58.779Z,9.61
2022-11-02T16:47:27.851Z,9.40
2022-11-02T16:52:33.254Z,9.28
2022-11-02T16:57:44.902Z,9.36
2022-11-02T17:02:47.459Z,9.27
2022-11-02T17:08:05.946Z,9.45
2022-11-02T17:13:21.360Z,9.44
2022-11-02T17:18:28.431Z,9.33
2022-11-02T17:23:35.634Z,9.25
2022-11-02T17:28:36.995Z,9.20
2022-11-02T17:33:43.279Z,9.00
2022-11-02T17:38:45.048Z,9.04
2022-11-02T17:43:46.460Z,9.01
2022-11-02T17:48:47.882Z,8.82
2022-11-02T17:53:50.246Z,8.74
2022-11-02T17:58:51.671Z,8.56
2022-11-02T18:03:53.083Z,8.28
2022-11-02T18:09:18.777Z,8.18
2022-11-02T18:14:20.227Z,8.20
2022-11-02T18:19:21.828Z,8.10
2022-11-02T18:24:23.253Z,8.10
2022-11-02T18:29:24.789Z,8.01
2022-11-02T18:34:26.201Z,8.05
2022-11-02T18:39:27.631Z,8.07
2022-11-02T18:44:29.107Z,8.05
2022-11-02T18:49:30.560Z,8.07
2022-11-02T18:54:32.181Z,8.04
2022-11-02T18:59:35.964Z,8.04
2022-11-02T19:04:37.467Z,8.06
2022-11-02T19:09:38.926Z,8.00
2022-11-02T19:14:45.284Z,7.88
2022-11-02T19:19:48.351Z,7.99
2022-11-02T19:24:50.405Z,7.91
2022-11-02T19:29:52.252Z,7.83
2022-11-02T19:34:53.677Z,7.74
2022-11-02T19:39:55.163Z,7.78
2022-11-02T19:44:56.567Z,7.83
2022-11-02T19:49:57.959Z,7.69
2022-11-02T19:54:59.367Z,7.63
2022-11-02T20:00:01.210Z,7.74
2022-11-02T20:05:02.659Z,7.60
2022-11-02T20:10:04.446Z,7.52
2022-11-02T20:15:07.899Z,7.47
2022-11-02T20:20:09.633Z,7.46
2022-11-02T20:25:11.037Z,7.40
2022-11-02T20:30:12.606Z,7.42
2022-11-02T20:35:14.162Z,7.46
2022-11-02T20:40:15.943Z,7.42
2022-11-02T20:45:17.917Z,7.44
2022-11-02T20:50:23.148Z,7.48
2022-11-02T20:55:27.453Z,7.52
2022-11-02T21:00:28.892Z,7.45
2022-11-02T21:05:30.643Z,7.46
2022-11-02T21:10:32.056Z,7.40
2022-11-02T21:15:36.636Z,7.29
2022-11-02T21:20:37.973Z,7.26
2022-11-02T21:25:39.545Z,7.18
2022-11-02T21:30:41.187Z,7.22
2022-11-02T21:35:42.657Z,7.20
2022-11-02T21:40:44.152Z,7.19
2022-11-02T21:45:53.723Z,7.24
2022-11-02T21:51:02.616Z,7.18
2022-11-02T21:56:08.134Z,7.23
2022-11-02T22:01:45.199Z,7.22
2022-11-02T22:06:48.057Z,7.12
2022-11-02T22:12:09.945Z,7.26
2022-11-02T22:17:21.943Z,7.34
2022-11-02T22:22:30.050Z,7.33
2022-11-02T22:27:31.505Z,7.38
2022-11-02T22:32:33.804Z,7.43
2022-11-02T22:37:53.914Z,7.37
2022-11-02T22:42:55.833Z,7.51
2022-11-02T22:47:57.266Z,7.43
2022-11-02T22:52:58.693Z,7.44
2022-11-02T22:58:00.194Z,7.48
2022-11-02T23:03:01.662Z,7.41
2022-11-02T23:08:03.138Z,7.44
2022-11-02T23:13:04.932Z,7.42
2022-11-02T23:18:06.679Z,7.46
2022-11-02T23:23:26.911Z,7.45
2022-11-02T23:28:46.827Z,7.54
2022-11-02T23:33:48.323Z,7.53
2022-11-02T23:39:08.712Z,7.48
2022-11-02T23:44:14.130Z,7.61
2022-11-02T23:49:17.510Z,7.53
2022-11-02T23:54:37.400Z,7.55
2022-11-02T23:59:39.298Z,7.64
